Dillon, CO

10:59 AM MST on January 29, 2015 (GMT -0700)
MesoWest JACKWHACKER GULCH CO US SNOTEL | Change Station
CLOSE
Current Station
Personal Weather Station
Location: Grant, CO
Elevation: 10959 ft
Nearby Weather Stations

Elev 10959 ft 39.57 °N, 105.80 °W | Updated 7 days ago

Rain
Rain
45 °F
Feels Like 45 °F
N
5
Wind Variable Wind from South
Gusts 5 mph

Today
High -- | Low -- °F
--% Chance of Precip.
Yesterday
High -- | Low -- °F
Precip. -- in
7:13 AM 5:19 PM
Waxing Gibbous, 76% visible
Pressure 30.48 in
Visibility 10.0 miles
Clouds Clear
Dew Point 18 °F
Humidity 33%
Rainfall 0.00 in
Snow Depth Not available.
UV 4 out of 12
Pollen .30 out of 12
Air Quality Not available.
Flu Activity Not available.
METAR K0CO 291755Z AUTO 12008KT 10SM CLR M08/M12 A3048 RMK AO2

More Conditions Fewer Conditions

Pressure 30.48 in
Visibility 10.0 miles
Clouds Clear
Dew Point 18 °F
Humidity 33%
Rainfall 0.00 in
Snow Depth Not available.
UV 4 out of 12
Pollen .30 out of 12
Air Quality Not available.
Flu Activity Not available.
METAR K0CO 291755Z AUTO 12008KT 10SM CLR M08/M12 A3048 RMK AO2

More Conditions Fewer Conditions

10-Day Weather Forecast

Almanac

Astronomy

Jan. 29, 2015 Rise Set
Actual Time
Civil Twilight
Nautical Twilight
Astronomical Twilight
Moon
Length of Visible Light
Length of Day
Tomorrow will be .
, % of the Moon is Illuminated

Today's Extremes

State Highs State Lows

Community

WunderPhotos

Upload Photos

1,791,501 photos uploaded!

WunderBlogs® & News

Nearby

Air Quality

  Air Quality AQ Index Pollutant
Not available.

Snow Depth

Station Depth Elevation

Earthquake Activity

City Distance Mag. Time & Date
Minimum magnitude displayed is 2.5.

Coastal Water Temperatures

Place Temperature

Nearby Weather Stations